createdAt,value
2023-04-11T00:00:12.544Z,12.49
2023-04-11T00:01:12.529Z,12.42
2023-04-11T00:02:12.562Z,12.35
2023-04-11T00:03:12.729Z,12.42
2023-04-11T00:04:12.581Z,12.36
2023-04-11T00:05:12.486Z,12.35
2023-04-11T00:06:12.475Z,12.32
2023-04-11T00:07:12.501Z,12.35
2023-04-11T00:08:12.468Z,12.37
2023-04-11T00:09:12.454Z,12.40
2023-04-11T00:10:12.442Z,12.39
2023-04-11T00:11:12.415Z,12.36
2023-04-11T00:12:12.455Z,12.36
2023-04-11T00:13:12.452Z,12.29
2023-04-11T00:14:12.479Z,12.28
2023-04-11T00:15:12.380Z,12.28
2023-04-11T00:16:12.379Z,12.28
2023-04-11T00:17:12.348Z,12.27
2023-04-11T00:18:12.530Z,12.25
2023-04-11T00:19:12.360Z,12.35
2023-04-11T00:20:12.319Z,12.31
2023-04-11T00:21:12.304Z,12.31
2023-04-11T00:22:12.297Z,12.21
2023-04-11T00:23:12.356Z,12.22
2023-04-11T00:24:12.276Z,12.15
2023-04-11T00:25:12.348Z,12.15
2023-04-11T00:26:12.253Z,12.27
2023-04-11T00:27:12.240Z,12.31
2023-04-11T00:28:12.229Z,12.28
2023-04-11T00:29:12.231Z,12.21
2023-04-11T00:30:12.205Z,12.28
2023-04-11T00:31:12.194Z,12.15
2023-04-11T00:32:12.206Z,12.22
2023-04-11T00:33:12.189Z,12.24
2023-04-11T00:34:12.161Z,12.20
2023-04-11T00:35:12.147Z,12.21
2023-04-11T00:36:12.304Z,12.12
2023-04-11T00:37:12.123Z,12.20
2023-04-11T00:38:12.116Z,12.20
2023-04-11T00:39:12.136Z,12.18
2023-04-11T00:40:12.092Z,12.17
2023-04-11T00:41:12.081Z,12.18
2023-04-11T00:42:12.075Z,12.15
2023-04-11T00:43:12.072Z,12.15
2023-04-11T00:44:12.062Z,12.09
2023-04-11T00:45:12.046Z,12.12
2023-04-11T00:46:12.100Z,12.09
2023-04-11T00:47:12.020Z,12.07
2023-04-11T00:48:12.008Z,12.07
2023-04-11T00:49:12.016Z,12.09
2023-04-11T00:50:11.985Z,12.07
2023-04-11T00:51:11.970Z,12.06
2023-04-11T00:52:11.954Z,12.04
2023-04-11T00:53:11.950Z,12.10
2023-04-11T00:54:11.965Z,12.02
2023-04-11T00:55:11.947Z,12.00
2023-04-11T00:56:11.916Z,11.91
2023-04-11T00:57:11.898Z,12.00
2023-04-11T00:58:11.888Z,11.99
2023-04-11T00:59:11.893Z,11.88
2023-04-11T01:00:11.870Z,11.90
2023-04-11T01:01:11.900Z,11.94
2023-04-11T01:02:11.935Z,11.90
2023-04-11T01:03:12.020Z,11.91
2023-04-11T01:04:11.950Z,11.88
2023-04-11T01:05:11.824Z,11.90
2023-04-11T01:06:11.805Z,11.94
2023-04-11T01:07:11.818Z,11.91
2023-04-11T01:08:11.806Z,11.88
2023-04-11T01:09:11.783Z,11.86
2023-04-11T01:10:11.877Z,11.84
2023-04-11T01:11:11.774Z,11.95
2023-04-11T01:12:11.771Z,11.91
2023-04-11T01:13:11.730Z,11.88
2023-04-11T01:14:11.730Z,11.90
2023-04-11T01:15:11.936Z,11.84
2023-04-11T01:16:11.708Z,11.81
2023-04-11T01:17:11.688Z,11.81
2023-04-11T01:18:11.708Z,11.86
2023-04-11T01:19:11.665Z,11.87
2023-04-11T01:20:11.674Z,11.80
2023-04-11T01:21:11.649Z,11.80
2023-04-11T01:22:11.628Z,11.78
2023-04-11T01:23:11.638Z,11.80
2023-04-11T01:24:11.616Z,11.81
2023-04-11T01:25:11.635Z,11.83
2023-04-11T01:26:11.590Z,11.80
2023-04-11T01:27:11.619Z,11.80
2023-04-11T01:28:11.563Z,11.80
2023-04-11T01:29:11.569Z,11.75
2023-04-11T01:30:11.545Z,11.78
2023-04-11T01:31:11.555Z,11.73
2023-04-11T01:32:11.519Z,11.70
2023-04-11T01:33:11.523Z,11.73
2023-04-11T01:34:11.496Z,11.73
2023-04-11T01:35:11.504Z,11.78
2023-04-11T01:36:11.529Z,11.70
2023-04-11T01:37:11.467Z,11.73
2023-04-11T01:38:11.495Z,11.73
2023-04-11T01:39:11.463Z,11.72
2023-04-11T01:40:11.428Z,11.78
2023-04-11T01:41:11.419Z,11.70
2023-04-11T01:42:11.414Z,11.69
2023-04-11T01:43:11.437Z,11.73
2023-04-11T01:44:11.402Z,11.62
2023-04-11T01:45:11.376Z,11.70
2023-04-11T01:46:11.370Z,11.60
2023-04-11T01:47:11.355Z,11.60
2023-04-11T01:48:11.438Z,11.78
2023-04-11T01:49:11.411Z,11.57
2023-04-11T01:50:11.316Z,11.77
2023-04-11T01:51:11.306Z,11.60
2023-04-11T01:52:11.301Z,11.66
2023-04-11T01:53:11.295Z,11.60
2023-04-11T01:54:11.300Z,11.72
2023-04-11T01:55:11.276Z,11.68
2023-04-11T01:56:11.283Z,11.66
2023-04-11T01:57:11.248Z,11.70
2023-04-11T01:58:11.245Z,11.66
2023-04-11T01:59:11.243Z,11.69
2023-04-11T02:00:11.290Z,11.59
2023-04-11T02:01:11.223Z,11.59
2023-04-11T02:02:11.311Z,11.69
2023-04-11T02:03:11.279Z,11.66
2023-04-11T02:04:11.237Z,11.63
2023-04-11T02:05:11.148Z,11.65
2023-04-11T02:06:11.135Z,11.65
2023-04-11T02:07:11.195Z,11.68
2023-04-11T02:08:11.131Z,11.69
2023-04-11T02:09:11.107Z,11.66
2023-04-11T02:10:11.108Z,11.59
2023-04-11T02:11:11.118Z,11.59
2023-04-11T02:12:11.145Z,11.66
2023-04-11T02:13:11.146Z,11.65
2023-04-11T02:14:11.045Z,11.63
2023-04-11T02:15:11.067Z,11.65
2023-04-11T02:16:11.075Z,11.60
2023-04-11T02:17:11.018Z,11.65
2023-04-11T02:18:11.019Z,11.62
2023-04-11T02:19:11.008Z,11.70
2023-04-11T02:20:10.999Z,11.66
2023-04-11T02:21:10.973Z,11.69
2023-04-11T02:22:10.964Z,11.66
2023-04-11T02:23:10.984Z,11.63
2023-04-11T02:24:10.938Z,11.65
2023-04-11T02:25:10.938Z,11.57
2023-04-11T02:26:11.245Z,11.59
2023-04-11T02:27:10.915Z,11.65
2023-04-11T02:28:10.894Z,11.60
2023-04-11T02:29:10.899Z,11.57
2023-04-11T02:30:10.872Z,11.57
2023-04-11T02:31:11.099Z,11.59
2023-04-11T02:32:11.021Z,11.50
2023-04-11T02:33:10.840Z,11.57
2023-04-11T02:34:10.826Z,11.47
2023-04-11T02:35:10.817Z,11.51
2023-04-11T02:36:10.849Z,11.51
2023-04-11T02:37:10.806Z,11.55
2023-04-11T02:38:10.793Z,11.55
2023-04-11T02:39:10.773Z,11.57
2023-04-11T02:40:10.771Z,11.51
2023-04-11T02:41:10.751Z,11.55
2023-04-11T02:42:10.752Z,11.51
2023-04-11T02:43:10.734Z,11.51
2023-04-11T02:44:10.724Z,11.52
2023-04-11T02:45:10.705Z,11.51
2023-04-11T02:46:13.314Z,11.50
2023-04-11T02:47:10.846Z,11.54
2023-04-11T02:48:10.669Z,11.50
2023-04-11T02:49:10.662Z,11.51
2023-04-11T02:50:10.656Z,11.50
2023-04-11T02:51:10.660Z,11.44
2023-04-11T02:52:10.653Z,11.51
2023-04-11T02:53:10.624Z,11.35
2023-04-11T02:54:10.605Z,11.32
2023-04-11T02:55:10.603Z,11.43
2023-04-11T02:56:10.594Z,11.37
2023-04-11T02:57:10.588Z,11.37
2023-04-11T02:58:10.565Z,11.30
2023-04-11T02:59:10.559Z,11.36
2023-04-11T03:00:10.540Z,11.30
2023-04-11T03:01:10.531Z,11.36
2023-04-11T03:02:10.574Z,11.30
2023-04-11T03:03:10.736Z,11.29
2023-04-11T03:04:10.547Z,11.26
2023-04-11T03:05:10.483Z,11.23
2023-04-11T03:06:10.491Z,11.27
2023-04-11T03:07:10.485Z,11.25
2023-04-11T03:08:10.473Z,11.29
2023-04-11T03:09:10.437Z,11.27
2023-04-11T03:10:10.438Z,11.19
2023-04-11T03:11:10.474Z,11.29
2023-04-11T03:12:10.418Z,11.25
2023-04-11T03:13:10.400Z,11.23
2023-04-11T03:14:10.379Z,11.22
2023-04-11T03:15:10.376Z,11.22
2023-04-11T03:16:10.398Z,11.26
2023-04-11T03:17:10.394Z,11.25
2023-04-11T03:18:10.398Z,11.25
2023-04-11T03:19:10.365Z,11.19
2023-04-11T03:20:10.372Z,11.25
2023-04-11T03:21:10.378Z,11.15
2023-04-11T03:22:10.313Z,11.25
2023-04-11T03:23:10.388Z,11.25
2023-04-11T03:24:10.294Z,11.25
2023-04-11T03:25:10.288Z,11.18
2023-04-11T03:26:10.251Z,11.27
2023-04-11T03:27:10.243Z,11.23
2023-04-11T03:28:10.247Z,11.22
2023-04-11T03:29:10.233Z,11.19
2023-04-11T03:30:10.211Z,11.15
2023-04-11T03:31:10.240Z,11.19
2023-04-11T03:32:10.195Z,11.30
2023-04-11T03:33:10.197Z,11.26
2023-04-11T03:34:10.167Z,11.29
2023-04-11T03:35:10.214Z,11.25
2023-04-11T03:36:10.227Z,11.27
2023-04-11T03:37:10.156Z,11.25
2023-04-11T03:38:10.152Z,11.30
2023-04-11T03:39:10.126Z,11.26
2023-04-11T03:40:10.105Z,11.12
2023-04-11T03:41:10.100Z,11.10
2023-04-11T03:42:10.130Z,11.15
2023-04-11T03:43:10.087Z,11.12
2023-04-11T03:44:10.067Z,11.12
2023-04-11T03:45:10.051Z,11.11
2023-04-11T03:46:10.070Z,11.14
2023-04-11T03:47:10.048Z,11.14
2023-04-11T03:48:10.015Z,11.19
2023-04-11T03:49:10.008Z,11.18
2023-04-11T03:50:10.008Z,11.12
2023-04-11T03:51:10.003Z,11.10
2023-04-11T03:52:10.049Z,11.14
2023-04-11T03:53:09.980Z,11.14
2023-04-11T03:54:09.954Z,11.15
2023-04-11T03:55:09.949Z,11.12
2023-04-11T03:56:09.923Z,11.15
2023-04-11T03:57:09.914Z,11.14
2023-04-11T03:58:09.920Z,11.26
2023-04-11T03:59:09.897Z,11.18
2023-04-11T04:00:09.880Z,11.11
2023-04-11T04:01:09.878Z,11.17
2023-04-11T04:02:10.084Z,11.14
2023-04-11T04:03:10.045Z,11.08
2023-04-11T04:04:10.033Z,11.07
2023-04-11T04:05:09.843Z,11.07
2023-04-11T04:06:09.856Z,11.08
2023-04-11T04:07:09.828Z,11.00
2023-04-11T04:08:09.815Z,10.96
2023-04-11T04:09:09.776Z,10.97
2023-04-11T04:10:09.770Z,10.99
2023-04-11T04:11:09.774Z,11.07
2023-04-11T04:12:09.751Z,11.02
2023-04-11T04:13:09.751Z,10.94
2023-04-11T04:14:09.718Z,11.02
2023-04-11T04:15:09.717Z,11.04
2023-04-11T04:16:09.746Z,10.97
2023-04-11T04:17:09.694Z,10.97
2023-04-11T04:18:09.718Z,10.93
2023-04-11T04:19:09.697Z,11.00
2023-04-11T04:20:09.670Z,11.04
2023-04-11T04:21:09.642Z,11.08
2023-04-11T04:22:09.665Z,11.07
2023-04-11T04:23:09.688Z,10.96
2023-04-11T04:24:09.610Z,10.92
2023-04-11T04:25:09.784Z,11.05
2023-04-11T04:26:09.588Z,10.92
2023-04-11T04:27:09.585Z,11.02
2023-04-11T04:28:09.576Z,10.94
2023-04-11T04:29:09.556Z,10.90
2023-04-11T04:30:09.560Z,10.99
2023-04-11T04:31:09.539Z,10.94
2023-04-11T04:32:09.636Z,11.00
2023-04-11T04:33:09.530Z,10.86
2023-04-11T04:34:09.514Z,10.82
2023-04-11T04:35:10.276Z,10.93
2023-04-11T04:36:09.578Z,11.02
2023-04-11T04:37:09.592Z,10.96
2023-04-11T04:38:09.471Z,10.99
2023-04-11T04:39:09.560Z,10.82
2023-04-11T04:40:09.523Z,10.86
2023-04-11T04:41:09.440Z,10.71
2023-04-11T04:42:09.507Z,10.61
2023-04-11T04:43:09.413Z,10.71
2023-04-11T04:44:09.391Z,10.56
2023-04-11T04:45:09.379Z,10.64
2023-04-11T04:46:09.375Z,10.63
2023-04-11T04:47:09.357Z,10.60
2023-04-11T04:48:09.410Z,10.59
2023-04-11T04:49:09.338Z,10.49
2023-04-11T04:50:09.327Z,10.48
2023-04-11T04:51:09.306Z,10.31
2023-04-11T04:52:09.293Z,10.26
2023-04-11T04:53:09.302Z,10.20
2023-04-11T04:54:09.782Z,10.30
2023-04-11T04:55:09.287Z,10.22
2023-04-11T04:56:09.761Z,10.26
2023-04-11T04:57:09.277Z,10.23
2023-04-11T04:58:09.230Z,10.23
2023-04-11T04:59:09.215Z,10.13
2023-04-11T05:00:09.204Z,10.19
2023-04-11T05:01:09.520Z,10.15
2023-04-11T05:02:09.238Z,10.16
2023-04-11T05:03:09.339Z,10.15
2023-04-11T05:04:09.331Z,10.13
2023-04-11T05:05:09.151Z,10.19
2023-04-11T05:06:09.137Z,10.16
2023-04-11T05:07:09.139Z,10.16
2023-04-11T05:08:09.337Z,10.16
2023-04-11T05:09:09.105Z,10.19
2023-04-11T05:10:09.120Z,10.12
2023-04-11T05:11:09.105Z,10.10
2023-04-11T05:12:09.092Z,10.20
2023-04-11T05:13:09.057Z,10.09
2023-04-11T05:14:09.049Z,10.15
2023-04-11T05:15:09.110Z,10.20
2023-04-11T05:16:09.029Z,10.16
2023-04-11T05:17:09.042Z,10.17
2023-04-11T05:18:09.029Z,10.15
2023-04-11T05:19:08.990Z,10.04
2023-04-11T05:20:09.102Z,10.04
2023-04-11T05:21:08.972Z,10.09
2023-04-11T05:22:08.973Z,10.05
2023-04-11T05:23:08.948Z,10.10
2023-04-11T05:24:08.948Z,10.04
2023-04-11T05:25:08.928Z,10.05
2023-04-11T05:26:08.931Z,9.99
2023-04-11T05:27:08.922Z,9.97
2023-04-11T05:28:08.892Z,9.91
2023-04-11T05:29:08.907Z,9.92
2023-04-11T05:30:08.918Z,9.99
2023-04-11T05:31:08.943Z,9.91
2023-04-11T05:32:08.851Z,10.02
2023-04-11T05:33:08.953Z,9.92
2023-04-11T05:34:08.826Z,9.94
2023-04-11T05:35:08.829Z,9.87
2023-04-11T05:36:08.833Z,9.91
2023-04-11T05:37:09.001Z,9.92
2023-04-11T05:38:08.781Z,9.91
2023-04-11T05:39:08.806Z,9.97
2023-04-11T05:40:08.782Z,9.86
2023-04-11T05:41:08.759Z,9.94
2023-04-11T05:42:08.942Z,9.84
2023-04-11T05:43:08.755Z,9.97
2023-04-11T05:44:08.746Z,9.92
2023-04-11T05:45:08.709Z,9.84
2023-04-11T05:46:08.716Z,9.92
2023-04-11T05:47:08.682Z,10.04
2023-04-11T05:48:08.698Z,9.94
2023-04-11T05:49:08.703Z,10.02
2023-04-11T05:50:08.672Z,10.02
2023-04-11T05:51:08.634Z,10.02
2023-04-11T05:52:08.630Z,9.99
2023-04-11T05:53:08.643Z,9.89
2023-04-11T05:54:08.750Z,9.89
2023-04-11T05:55:08.596Z,9.79
2023-04-11T05:56:08.587Z,9.69
2023-04-11T05:57:08.573Z,9.68
2023-04-11T05:58:08.557Z,9.76
2023-04-11T05:59:08.582Z,9.76
2023-04-11T06:00:08.535Z,9.77
2023-04-11T06:01:08.528Z,9.76
2023-04-11T06:02:08.586Z,9.74
2023-04-11T06:03:08.613Z,9.76
2023-04-11T06:04:08.754Z,9.79
2023-04-11T06:05:08.563Z,9.69
2023-04-11T06:06:08.473Z,9.73
2023-04-11T06:07:08.456Z,9.73
2023-04-11T06:08:08.451Z,9.72
2023-04-11T06:09:08.450Z,9.77
2023-04-11T06:10:08.426Z,9.73
2023-04-11T06:11:08.423Z,9.89
2023-04-11T06:12:08.418Z,9.87
2023-04-11T06:13:08.568Z,9.84
2023-04-11T06:14:08.391Z,9.83
2023-04-11T06:15:08.389Z,9.89
2023-04-11T06:16:08.419Z,9.94
2023-04-11T06:17:08.343Z,9.97
2023-04-11T06:18:08.420Z,9.91
2023-04-11T06:19:08.343Z,9.99
2023-04-11T06:20:08.329Z,10.07
2023-04-11T06:21:08.306Z,10.07
2023-04-11T06:22:08.300Z,10.07
2023-04-11T06:23:08.277Z,10.09
2023-04-11T06:24:08.282Z,10.13
2023-04-11T06:25:08.262Z,10.22
2023-04-11T06:26:10.410Z,10.26
2023-04-11T06:27:08.257Z,10.26
2023-04-11T06:28:08.226Z,10.35
2023-04-11T06:29:08.245Z,10.42
2023-04-11T06:30:08.203Z,10.44
2023-04-11T06:31:08.252Z,10.46
2023-04-11T06:32:08.202Z,10.40
2023-04-11T06:33:08.203Z,10.44
2023-04-11T06:34:08.174Z,10.48
2023-04-11T06:35:08.175Z,10.46
2023-04-11T06:36:08.174Z,10.49
2023-04-11T06:37:08.138Z,10.49
2023-04-11T06:38:08.118Z,10.53
2023-04-11T06:39:08.120Z,10.46
2023-04-11T06:40:08.099Z,10.46
2023-04-11T06:41:08.082Z,10.35
2023-04-11T06:42:08.086Z,10.48
2023-04-11T06:43:08.063Z,10.42
2023-04-11T06:44:08.107Z,10.38
2023-04-11T06:45:08.048Z,10.35
2023-04-11T06:46:08.064Z,10.38
2023-04-11T06:47:08.060Z,10.40
2023-04-11T06:48:08.024Z,10.46
2023-04-11T06:49:08.002Z,10.44
2023-04-11T06:50:08.001Z,10.38
2023-04-11T06:51:07.971Z,10.40
2023-04-11T06:52:07.961Z,10.34
2023-04-11T06:53:07.947Z,10.37
2023-04-11T06:54:07.955Z,10.42
2023-04-11T06:55:07.949Z,10.37
2023-04-11T06:56:08.052Z,10.42
2023-04-11T06:57:07.919Z,10.46
2023-04-11T06:58:07.934Z,10.44
2023-04-11T06:59:07.885Z,10.44
2023-04-11T07:00:07.900Z,10.48
2023-04-11T07:01:07.863Z,10.48
2023-04-11T07:02:07.989Z,10.44
2023-04-11T07:03:08.109Z,10.61
2023-04-11T07:04:07.910Z,10.54
2023-04-11T07:05:07.847Z,10.57
2023-04-11T07:06:07.818Z,10.59
2023-04-11T07:07:07.798Z,10.60
2023-04-11T07:08:07.796Z,10.61
2023-04-11T07:09:07.784Z,10.61
2023-04-11T07:10:07.794Z,10.71
2023-04-11T07:11:07.749Z,10.75
2023-04-11T07:12:07.754Z,10.74
2023-04-11T07:13:07.743Z,10.81
2023-04-11T07:14:07.761Z,10.76
2023-04-11T07:15:07.728Z,10.82
2023-04-11T07:16:07.784Z,10.82
2023-04-11T07:17:07.684Z,10.72
2023-04-11T07:18:07.769Z,10.67
2023-04-11T07:19:07.722Z,10.74
2023-04-11T07:20:07.671Z,10.76
2023-04-11T07:21:07.646Z,10.75
2023-04-11T07:22:07.654Z,10.71
2023-04-11T07:23:07.660Z,10.78
2023-04-11T07:24:08.269Z,10.69
2023-04-11T07:25:07.625Z,10.71
2023-04-11T07:26:07.584Z,10.60
2023-04-11T07:27:07.575Z,10.71
2023-04-11T07:28:07.590Z,10.71
2023-04-11T07:29:09.976Z,10.78
2023-04-11T07:30:07.550Z,10.79
2023-04-11T07:31:07.605Z,10.75
2023-04-11T07:32:07.521Z,10.76
2023-04-11T07:33:07.564Z,10.72
2023-04-11T07:34:07.509Z,10.76
2023-04-11T07:35:07.521Z,10.87
2023-04-11T07:36:07.556Z,10.82
2023-04-11T07:37:07.461Z,10.82
2023-04-11T07:38:07.463Z,10.84
2023-04-11T07:39:07.456Z,10.79
2023-04-11T07:40:07.426Z,10.86
2023-04-11T07:41:07.450Z,10.94
2023-04-11T07:42:07.412Z,10.82
2023-04-11T07:43:07.409Z,10.78
2023-04-11T07:44:07.387Z,10.81
2023-04-11T07:45:07.369Z,10.82
2023-04-11T07:46:07.438Z,10.92
2023-04-11T07:47:07.380Z,11.00
2023-04-11T07:48:07.399Z,10.90
2023-04-11T07:49:07.334Z,11.00
2023-04-11T07:50:07.318Z,11.07
2023-04-11T07:51:07.425Z,11.07
2023-04-11T07:52:07.292Z,11.07
2023-04-11T07:53:07.354Z,11.29
2023-04-11T07:54:07.274Z,11.32
2023-04-11T07:55:07.386Z,11.40
2023-04-11T07:56:07.250Z,11.40
2023-04-11T07:57:07.265Z,11.43
2023-04-11T07:58:07.231Z,11.36
2023-04-11T07:59:07.214Z,11.43
2023-04-11T08:00:08.237Z,11.47
2023-04-11T08:01:07.194Z,11.50
2023-04-11T08:02:07.337Z,11.55
2023-04-11T08:03:07.429Z,11.48
2023-04-11T08:04:07.366Z,11.32
2023-04-11T08:05:07.235Z,11.50
2023-04-11T08:06:07.137Z,11.60
2023-04-11T08:07:07.250Z,11.54
2023-04-11T08:08:07.125Z,11.62
2023-04-11T08:09:07.101Z,11.51
2023-04-11T08:10:07.170Z,11.55
2023-04-11T08:11:07.082Z,11.51
2023-04-11T08:12:07.083Z,11.43
2023-04-11T08:13:07.060Z,11.30
2023-04-11T08:14:07.057Z,11.40
2023-04-11T08:15:07.053Z,11.27
2023-04-11T08:16:07.106Z,11.40
2023-04-11T08:17:17.572Z,11.36
2023-04-11T08:18:08.033Z,11.29
2023-04-11T08:19:07.124Z,11.29
2023-04-11T08:20:06.987Z,11.27
2023-04-11T08:21:07.157Z,11.30
2023-04-11T08:22:06.977Z,11.23
2023-04-11T08:23:14.861Z,11.25
2023-04-11T08:24:06.940Z,11.27
2023-04-11T08:25:06.925Z,11.29
2023-04-11T08:26:06.935Z,11.25
2023-04-11T08:27:06.924Z,11.30
2023-04-11T08:28:06.995Z,11.30
2023-04-11T08:29:06.883Z,11.25
2023-04-11T08:30:06.881Z,11.29
2023-04-11T08:31:07.879Z,11.29
2023-04-11T08:32:06.866Z,11.32
2023-04-11T08:33:06.853Z,11.27
2023-04-11T08:34:07.555Z,11.26
2023-04-11T08:35:06.841Z,11.25
2023-04-11T08:36:06.812Z,11.22
2023-04-11T08:37:06.814Z,11.25
2023-04-11T08:38:06.883Z,11.22
2023-04-11T08:39:06.792Z,11.23
2023-04-11T08:40:06.809Z,11.15
2023-04-11T08:41:06.802Z,11.18
2023-04-11T08:42:06.747Z,11.32
2023-04-11T08:43:06.768Z,11.35
2023-04-11T08:44:06.725Z,11.27
2023-04-11T08:45:06.766Z,11.29
2023-04-11T08:46:06.739Z,11.33
2023-04-11T08:47:06.684Z,11.41
2023-04-11T08:48:06.699Z,11.40
2023-04-11T08:49:06.657Z,11.55
2023-04-11T08:50:06.676Z,11.55
2023-04-11T08:51:06.639Z,11.55
2023-04-11T08:52:06.628Z,11.55
2023-04-11T08:53:06.628Z,11.68
2023-04-11T08:54:06.618Z,11.59
2023-04-11T08:55:06.630Z,11.66
2023-04-11T08:56:06.598Z,11.73
2023-04-11T08:57:06.601Z,11.65
2023-04-11T08:58:06.563Z,11.72
2023-04-11T08:59:06.547Z,11.65
2023-04-11T09:00:06.542Z,11.65
2023-04-11T09:01:06.556Z,11.65
2023-04-11T09:02:06.743Z,11.66
2023-04-11T09:03:06.668Z,11.65
2023-04-11T09:04:06.746Z,11.68
2023-04-11T09:05:06.516Z,11.63
2023-04-11T09:06:06.578Z,11.63
2023-04-11T09:07:06.478Z,11.75
2023-04-11T09:08:06.454Z,11.77
2023-04-11T09:09:06.510Z,11.80
2023-04-11T09:10:06.425Z,11.86
2023-04-11T09:11:06.438Z,11.90
2023-04-11T09:12:06.418Z,12.02
2023-04-11T09:13:06.395Z,12.07
2023-04-11T09:14:06.383Z,12.12
2023-04-11T09:15:06.368Z,12.27
2023-04-11T09:16:06.419Z,12.49
2023-04-11T09:17:06.366Z,12.55
2023-04-11T09:18:06.433Z,12.50
2023-04-11T09:19:06.329Z,12.62
2023-04-11T09:20:06.320Z,12.75
2023-04-11T09:21:06.347Z,12.79
2023-04-11T09:22:06.430Z,12.83
2023-04-11T09:23:06.294Z,12.86
2023-04-11T09:24:06.271Z,12.87
2023-04-11T09:25:06.272Z,12.79
2023-04-11T09:26:06.251Z,12.79
2023-04-11T09:27:06.281Z,12.91
2023-04-11T09:28:06.227Z,12.98
2023-04-11T09:29:06.222Z,12.98
2023-04-11T09:30:06.208Z,13.04
2023-04-11T09:31:06.221Z,13.12
2023-04-11T09:32:06.202Z,13.12
2023-04-11T09:33:06.336Z,13.25
2023-04-11T09:34:06.161Z,13.42
2023-04-11T09:35:06.154Z,13.50
2023-04-11T09:36:06.163Z,13.53
2023-04-11T09:37:06.137Z,13.77
2023-04-11T09:38:06.138Z,14.00
2023-04-11T09:39:06.108Z,14.29
2023-04-11T09:40:06.120Z,14.51
2023-04-11T09:41:06.092Z,15.19
2023-04-11T09:42:06.086Z,15.73
2023-04-11T09:43:06.089Z,16.02
2023-04-11T09:44:06.059Z,16.57
2023-04-11T09:45:06.111Z,16.83
2023-04-11T09:46:06.050Z,17.27
2023-04-11T09:47:06.131Z,17.54
2023-04-11T09:48:06.113Z,17.90
2023-04-11T09:49:06.265Z,17.90
2023-04-11T09:50:06.003Z,17.80
2023-04-11T09:51:05.995Z,17.49
2023-04-11T09:52:06.076Z,17.34
2023-04-11T09:53:05.954Z,17.20
2023-04-11T09:54:06.484Z,17.19
2023-04-11T09:55:05.951Z,17.01
2023-04-11T09:56:05.917Z,17.08
2023-04-11T09:57:05.921Z,17.16
2023-04-11T09:58:05.905Z,17.19
2023-04-11T09:59:05.905Z,17.12
2023-04-11T10:00:05.899Z,17.16
2023-04-11T10:01:05.872Z,17.16
2023-04-11T10:02:05.960Z,17.27
2023-04-11T10:03:05.945Z,17.42
2023-04-11T10:04:05.825Z,17.59
2023-04-11T10:05:05.869Z,17.64
2023-04-11T10:06:05.800Z,17.51
2023-04-11T10:07:05.804Z,17.60
2023-04-11T10:08:05.785Z,17.33
2023-04-11T10:09:05.771Z,17.14
2023-04-11T10:10:05.760Z,16.78
2023-04-11T10:11:05.988Z,16.42
2023-04-11T10:12:05.744Z,16.51
2023-04-11T10:13:05.759Z,16.42
2023-04-11T10:14:05.743Z,16.69
2023-04-11T10:15:05.737Z,16.68
2023-04-11T10:16:05.770Z,16.61
2023-04-11T10:17:05.681Z,16.54
2023-04-11T10:18:05.719Z,16.42
2023-04-11T10:19:05.662Z,16.36
2023-04-11T10:20:05.705Z,16.29
2023-04-11T10:21:05.637Z,16.47
2023-04-11T10:22:05.622Z,17.05
2023-04-11T10:23:05.633Z,17.39
2023-04-11T10:24:05.601Z,17.30
2023-04-11T10:25:05.595Z,17.01
2023-04-11T10:26:05.582Z,16.71
2023-04-11T10:27:05.575Z,17.09
2023-04-11T10:28:05.585Z,17.14
2023-04-11T10:29:05.549Z,16.76
2023-04-11T10:30:05.549Z,16.47
2023-04-11T10:31:05.590Z,16.74
2023-04-11T10:32:05.534Z,16.97
2023-04-11T10:33:05.570Z,17.42
2023-04-11T10:34:05.494Z,17.65
2023-04-11T10:35:05.493Z,18.05
2023-04-11T10:36:05.813Z,18.43
2023-04-11T10:37:05.464Z,18.74
2023-04-11T10:38:05.450Z,19.70
2023-04-11T10:39:05.449Z,20.62
2023-04-11T10:40:05.423Z,22.07
2023-04-11T10:41:05.431Z,23.20
2023-04-11T10:42:05.420Z,23.39
2023-04-11T10:43:05.411Z,23.37
2023-04-11T10:44:05.443Z,24.01
2023-04-11T10:45:05.377Z,24.80
2023-04-11T10:46:05.366Z,25.31
2023-04-11T10:47:05.466Z,25.83
2023-04-11T10:48:05.434Z,26.38
2023-04-11T10:49:05.341Z,27.29
2023-04-11T10:50:05.319Z,27.85
2023-04-11T10:51:05.412Z,28.47
2023-04-11T10:52:05.320Z,29.05
2023-04-11T10:53:05.283Z,29.44
2023-04-11T10:54:05.535Z,29.29
2023-04-11T10:55:05.264Z,28.76
2023-04-11T10:56:05.258Z,28.44
2023-04-11T10:57:05.249Z,27.75
2023-04-11T10:58:05.259Z,26.77
2023-04-11T10:59:05.224Z,25.59
2023-04-11T11:01:05.250Z,23.40
2023-04-11T11:02:05.282Z,22.29
2023-04-11T11:03:05.382Z,21.29
2023-04-11T11:04:05.669Z,20.40
2023-04-11T11:05:05.200Z,19.70
2023-04-11T11:06:05.185Z,19.31
2023-04-11T11:07:05.177Z,18.86
2023-04-11T11:08:05.159Z,18.56
2023-04-11T11:09:05.109Z,18.22
2023-04-11T11:10:05.100Z,17.85
2023-04-11T11:11:05.086Z,17.64
2023-04-11T11:12:05.092Z,17.34
2023-04-11T11:13:05.066Z,17.19
2023-04-11T11:14:05.058Z,16.71
2023-04-11T11:15:05.887Z,16.16
2023-04-11T11:16:05.065Z,15.94
2023-04-11T11:17:05.530Z,15.49
2023-04-11T11:18:05.067Z,15.15
2023-04-11T11:19:05.021Z,15.06
2023-04-11T11:20:04.990Z,15.02
2023-04-11T11:21:07.357Z,15.09
2023-04-11T11:22:05.069Z,15.46
2023-04-11T11:23:04.965Z,15.70
2023-04-11T11:24:04.950Z,15.79
2023-04-11T11:25:04.934Z,15.61
2023-04-11T11:26:04.918Z,15.55
2023-04-11T11:27:04.925Z,15.64
2023-04-11T11:28:04.933Z,15.84
2023-04-11T11:29:04.885Z,15.95
2023-04-11T11:30:04.876Z,16.57
2023-04-11T11:31:04.863Z,17.59
2023-04-11T11:32:04.946Z,18.38
2023-04-11T11:33:04.860Z,19.52
2023-04-11T11:34:18.429Z,20.36
2023-04-11T11:35:05.857Z,20.77
2023-04-11T11:36:04.854Z,21.42
2023-04-11T11:37:04.932Z,21.48
2023-04-11T11:38:04.820Z,21.72
2023-04-11T11:39:04.776Z,22.15
2023-04-11T11:40:04.764Z,22.25
2023-04-11T11:41:05.398Z,21.51
2023-04-11T11:42:04.761Z,20.95
2023-04-11T11:43:04.731Z,20.62
2023-04-11T11:44:04.721Z,20.81
2023-04-11T11:45:04.711Z,21.21
2023-04-11T11:46:07.110Z,21.46
2023-04-11T11:47:04.738Z,22.17
2023-04-11T11:48:04.707Z,22.57
2023-04-11T11:49:04.749Z,22.73
2023-04-11T11:50:04.664Z,23.09
2023-04-11T11:51:04.712Z,22.94
2023-04-11T11:52:04.656Z,23.25
2023-04-11T11:53:04.720Z,23.10
2023-04-11T11:54:04.673Z,23.39
2023-04-11T11:55:05.454Z,23.68
2023-04-11T11:56:04.617Z,23.66
2023-04-11T11:57:04.603Z,23.74
2023-04-11T11:58:04.591Z,23.65
2023-04-11T11:59:04.573Z,23.62
2023-04-11T12:00:04.564Z,23.61
2023-04-11T12:01:04.540Z,23.61
2023-04-11T12:02:04.687Z,23.47
2023-04-11T12:03:04.690Z,22.45
2023-04-11T12:04:04.691Z,21.30
2023-04-11T12:05:05.529Z,20.34
2023-04-11T12:06:04.493Z,19.85
2023-04-11T12:07:04.602Z,19.41
2023-04-11T12:08:04.500Z,18.90
2023-04-11T12:09:04.464Z,18.66
2023-04-11T12:10:04.446Z,18.88
2023-04-11T12:11:04.440Z,19.37
2023-04-11T12:12:04.441Z,19.86
2023-04-11T12:13:04.416Z,20.39
2023-04-11T12:14:04.405Z,20.63
2023-04-11T12:15:04.390Z,20.18
2023-04-11T12:16:04.458Z,19.62
2023-04-11T12:17:04.460Z,19.31
2023-04-11T12:18:04.408Z,18.83
2023-04-11T12:19:04.348Z,18.53
2023-04-11T12:20:04.349Z,18.22
2023-04-11T12:21:04.337Z,17.97
2023-04-11T12:22:04.334Z,17.67
2023-04-11T12:23:04.324Z,17.34
2023-04-11T12:24:04.310Z,17.65
2023-04-11T12:25:04.280Z,17.90
2023-04-11T12:26:04.328Z,17.89
2023-04-11T12:27:07.376Z,17.87
2023-04-11T12:28:04.244Z,17.79
2023-04-11T12:29:04.233Z,17.68
2023-04-11T12:30:04.298Z,17.34
2023-04-11T12:31:05.294Z,17.16
2023-04-11T12:32:04.323Z,17.02
2023-04-11T12:33:04.941Z,16.71
2023-04-11T12:34:04.217Z,16.39
2023-04-11T12:35:04.206Z,16.09
2023-04-11T12:36:04.157Z,16.04
2023-04-11T12:37:04.166Z,16.02
2023-04-11T12:38:04.151Z,16.05
2023-04-11T12:39:04.164Z,16.31
2023-04-11T12:40:04.136Z,16.65
2023-04-11T12:41:30.068Z,16.89
2023-04-11T12:42:05.111Z,17.12
2023-04-11T12:43:04.449Z,16.91
2023-04-11T12:44:04.925Z,16.81
2023-04-11T12:45:04.067Z,16.78
2023-04-11T12:46:04.133Z,16.58
2023-04-11T12:47:04.060Z,16.58
2023-04-11T12:48:04.101Z,16.41
2023-04-11T12:49:04.034Z,16.17
2023-04-11T12:50:04.006Z,16.20
2023-04-11T12:51:03.997Z,16.15
2023-04-11T12:52:03.993Z,16.00
2023-04-11T12:53:03.986Z,15.84
2023-04-11T12:54:03.959Z,15.82
2023-04-11T12:55:04.000Z,15.77